sensor_id;sensor_type;location;lat;lon;timestamp;P1;durP1;ratioP1;P2;durP2;ratioP2
36211;SDS011;22247;48.586;13.492;2023-01-01T00:00:37;99.03;;;24.50;;
36211;SDS011;22247;48.586;13.492;2023-01-01T00:03:05;129.02;;;29.08;;
36211;SDS011;22247;48.586;13.492;2023-01-01T00:05:31;77.38;;;26.13;;
36211;SDS011;22247;48.586;13.492;2023-01-01T00:08:00;115.93;;;37.38;;
36211;SDS011;22247;48.586;13.492;2023-01-01T00:10:28;116.03;;;31.58;;
36211;SDS011;22247;48.586;13.492;2023-01-01T00:12:56;122.60;;;31.27;;
36211;SDS011;22247;48.586;13.492;2023-01-01T00:15:27;82.70;;;29.15;;
36211;SDS011;22247;48.586;13.492;2023-01-01T00:17:53;124.88;;;30.90;;
36211;SDS011;22247;48.586;13.492;2023-01-01T00:20:24;70.85;;;29.27;;
36211;SDS011;22247;48.586;13.492;2023-01-01T00:22:52;50.40;;;26.33;;
36211;SDS011;22247;48.586;13.492;2023-01-01T00:25:20;193.95;;;36.40;;
36211;SDS011;22247;48.586;13.492;2023-01-01T00:27:46;79.25;;;29.58;;
36211;SDS011;22247;48.586;13.492;2023-01-01T00:30:16;62.63;;;28.70;;
36211;SDS011;22247;48.586;13.492;2023-01-01T00:32:51;146.63;;;32.85;;
36211;SDS011;22247;48.586;13.492;2023-01-01T00:35:16;58.97;;;25.80;;
36211;SDS011;22247;48.586;13.492;2023-01-01T00:37:42;367.83;;;41.03;;
36211;SDS011;22247;48.586;13.492;2023-01-01T00:40:08;127.80;;;27.70;;
36211;SDS011;22247;48.586;13.492;2023-01-01T00:42:34;413.00;;;72.43;;
36211;SDS011;22247;48.586;13.492;2023-01-01T00:45:05;284.70;;;43.05;;
36211;SDS011;22247;48.586;13.492;2023-01-01T00:47:31;263.02;;;44.60;;
36211;SDS011;22247;48.586;13.492;2023-01-01T00:49:59;307.00;;;47.83;;
36211;SDS011;22247;48.586;13.492;2023-01-01T00:52:27;575.67;;;71.07;;
36211;SDS011;22247;48.586;13.492;2023-01-01T00:54:55;419.42;;;69.72;;
36211;SDS011;22247;48.586;13.492;2023-01-01T00:57:20;674.30;;;78.03;;
36211;SDS011;22247;48.586;13.492;2023-01-01T00:59:46;528.60;;;75.30;;
36211;SDS011;22247;48.586;13.492;2023-01-01T01:02:15;354.63;;;61.17;;
36211;SDS011;22247;48.586;13.492;2023-01-01T01:04:45;265.65;;;46.65;;
36211;SDS011;22247;48.586;13.492;2023-01-01T01:07:11;286.42;;;52.30;;
36211;SDS011;22247;48.586;13.492;2023-01-01T01:09:36;221.07;;;45.20;;
36211;SDS011;22247;48.586;13.492;2023-01-01T01:12:05;565.20;;;73.82;;
36211;SDS011;22247;48.586;13.492;2023-01-01T01:14:30;473.85;;;63.40;;
36211;SDS011;22247;48.586;13.492;2023-01-01T01:16:58;561.50;;;60.67;;
36211;SDS011;22247;48.586;13.492;2023-01-01T01:19:28;271.63;;;55.72;;
36211;SDS011;22247;48.586;13.492;2023-01-01T01:21:54;443.30;;;71.13;;
36211;SDS011;22247;48.586;13.492;2023-01-01T01:24:19;433.20;;;66.47;;
36211;SDS011;22247;48.586;13.492;2023-01-01T01:26:48;626.47;;;74.00;;
36211;SDS011;22247;48.586;13.492;2023-01-01T01:29:13;262.98;;;58.08;;
36211;SDS011;22247;48.586;13.492;2023-01-01T01:31:39;374.33;;;56.70;;
36211;SDS011;22247;48.586;13.492;2023-01-01T01:34:08;528.42;;;60.60;;
36211;SDS011;22247;48.586;13.492;2023-01-01T01:36:35;715.22;;;76.22;;
36211;SDS011;22247;48.586;13.492;2023-01-01T01:39:03;411.90;;;61.38;;
36211;SDS011;22247;48.586;13.492;2023-01-01T01:41:29;271.92;;;50.53;;
36211;SDS011;22247;48.586;13.492;2023-01-01T01:43:59;310.75;;;48.97;;
36211;SDS011;22247;48.586;13.492;2023-01-01T01:46:28;463.77;;;55.75;;
36211;SDS011;22247;48.586;13.492;2023-01-01T01:49:13;460.55;;;56.65;;
36211;SDS011;22247;48.586;13.492;2023-01-01T01:51:49;376.52;;;50.55;;
36211;SDS011;22247;48.586;13.492;2023-01-01T01:54:19;393.77;;;46.63;;
36211;SDS011;22247;48.586;13.492;2023-01-01T01:59:14;320.35;;;44.45;;
36211;SDS011;22247;48.586;13.492;2023-01-01T02:01:43;219.63;;;41.15;;
36211;SDS011;22247;48.586;13.492;2023-01-01T02:04:10;123.95;;;33.80;;
36211;SDS011;22247;48.586;13.492;2023-01-01T02:06:39;108.03;;;34.15;;
36211;SDS011;22247;48.586;13.492;2023-01-01T02:09:05;142.68;;;35.30;;
36211;SDS011;22247;48.586;13.492;2023-01-01T02:11:32;115.95;;;30.92;;
36211;SDS011;22247;48.586;13.492;2023-01-01T02:13:58;147.75;;;33.10;;
36211;SDS011;22247;48.586;13.492;2023-01-01T02:16:39;81.95;;;28.75;;
36211;SDS011;22247;48.586;13.492;2023-01-01T02:22:33;95.30;;;27.65;;
36211;SDS011;22247;48.586;13.492;2023-01-01T02:25:35;110.32;;;28.63;;
36211;SDS011;22247;48.586;13.492;2023-01-01T02:31:02;99.10;;;26.80;;
36211;SDS011;22247;48.586;13.492;2023-01-01T02:33:28;162.00;;;27.30;;
36211;SDS011;22247;48.586;13.492;2023-01-01T02:36:01;219.05;;;32.25;;
36211;SDS011;22247;48.586;13.492;2023-01-01T02:43:40;122.97;;;24.88;;
36211;SDS011;22247;48.586;13.492;2023-01-01T02:46:07;41.88;;;20.98;;
36211;SDS011;22247;48.586;13.492;2023-01-01T03:15:50;156.48;;;22.70;;
36211;SDS011;22247;48.586;13.492;2023-01-01T03:18:26;34.22;;;18.65;;
36211;SDS011;22247;48.586;13.492;2023-01-01T03:21:07;55.63;;;19.15;;
36211;SDS011;22247;48.586;13.492;2023-01-01T03:23:35;41.85;;;18.48;;
36211;SDS011;22247;48.586;13.492;2023-01-01T03:26:10;91.45;;;20.88;;
36211;SDS011;22247;48.586;13.492;2023-01-01T03:28:39;68.05;;;20.95;;
36211;SDS011;22247;48.586;13.492;2023-01-01T03:31:23;74.95;;;19.63;;
36211;SDS011;22247;48.586;13.492;2023-01-01T03:34:10;77.63;;;19.70;;
36211;SDS011;22247;48.586;13.492;2023-01-01T03:36:43;47.10;;;18.67;;
36211;SDS011;22247;48.586;13.492;2023-01-01T03:44:35;42.88;;;17.27;;
36211;SDS011;22247;48.586;13.492;2023-01-01T03:47:10;89.40;;;18.92;;
36211;SDS011;22247;48.586;13.492;2023-01-01T03:49:36;45.33;;;16.88;;
36211;SDS011;22247;48.586;13.492;2023-01-01T03:52:20;61.85;;;15.52;;
36211;SDS011;22247;48.586;13.492;2023-01-01T04:00:16;101.57;;;17.38;;
36211;SDS011;22247;48.586;13.492;2023-01-01T04:02:55;41.90;;;14.95;;
36211;SDS011;22247;48.586;13.492;2023-01-01T04:05:21;34.28;;;15.45;;
36211;SDS011;22247;48.586;13.492;2023-01-01T04:07:51;39.15;;;16.65;;
36211;SDS011;22247;48.586;13.492;2023-01-01T04:10:17;35.47;;;15.40;;
36211;SDS011;22247;48.586;13.492;2023-01-01T04:12:51;53.00;;;13.90;;
36211;SDS011;22247;48.586;13.492;2023-01-01T04:15:22;54.67;;;15.02;;
36211;SDS011;22247;48.586;13.492;2023-01-01T04:17:50;38.10;;;14.40;;
36211;SDS011;22247;48.586;13.492;2023-01-01T04:20:18;29.05;;;14.90;;
36211;SDS011;22247;48.586;13.492;2023-01-01T04:22:49;60.67;;;14.30;;
36211;SDS011;22247;48.586;13.492;2023-01-01T04:25:15;47.83;;;15.60;;
36211;SDS011;22247;48.586;13.492;2023-01-01T04:27:41;41.08;;;15.50;;
36211;SDS011;22247;48.586;13.492;2023-01-01T04:30:08;39.80;;;14.05;;
36211;SDS011;22247;48.586;13.492;2023-01-01T04:32:38;87.40;;;17.67;;
36211;SDS011;22247;48.586;13.492;2023-01-01T04:35:07;85.20;;;16.02;;
36211;SDS011;22247;48.586;13.492;2023-01-01T04:37:39;109.75;;;18.02;;
36211;SDS011;22247;48.586;13.492;2023-01-01T04:40:06;31.92;;;16.33;;
36211;SDS011;22247;48.586;13.492;2023-01-01T04:42:33;86.28;;;17.58;;
36211;SDS011;22247;48.586;13.492;2023-01-01T04:45:04;62.47;;;21.90;;
36211;SDS011;22247;48.586;13.492;2023-01-01T04:47:33;63.83;;;21.80;;
36211;SDS011;22247;48.586;13.492;2023-01-01T04:50:01;81.28;;;22.42;;
36211;SDS011;22247;48.586;13.492;2023-01-01T04:52:27;106.65;;;22.05;;
36211;SDS011;22247;48.586;13.492;2023-01-01T04:54:53;108.00;;;20.73;;
36211;SDS011;22247;48.586;13.492;2023-01-01T04:57:19;165.38;;;23.27;;
36211;SDS011;22247;48.586;13.492;2023-01-01T04:59:45;243.02;;;32.72;;
36211;SDS011;22247;48.586;13.492;2023-01-01T05:02:11;159.52;;;31.25;;
36211;SDS011;22247;48.586;13.492;2023-01-01T05:04:36;258.00;;;41.42;;
36211;SDS011;22247;48.586;13.492;2023-01-01T05:07:02;294.50;;;36.72;;
36211;SDS011;22247;48.586;13.492;2023-01-01T05:09:28;98.15;;;27.33;;
36211;SDS011;22247;48.586;13.492;2023-01-01T05:11:54;74.75;;;26.27;;
36211;SDS011;22247;48.586;13.492;2023-01-01T05:14:20;206.88;;;32.03;;
36211;SDS011;22247;48.586;13.492;2023-01-01T05:16:51;112.07;;;25.85;;
36211;SDS011;22247;48.586;13.492;2023-01-01T05:19:19;132.07;;;29.55;;
36211;SDS011;22247;48.586;13.492;2023-01-01T05:21:45;64.57;;;24.50;;
36211;SDS011;22247;48.586;13.492;2023-01-01T05:24:11;88.45;;;23.30;;
36211;SDS011;22247;48.586;13.492;2023-01-01T05:26:43;77.82;;;21.48;;
36211;SDS011;22247;48.586;13.492;2023-01-01T05:29:10;125.85;;;21.92;;
36211;SDS011;22247;48.586;13.492;2023-01-01T05:31:35;150.60;;;22.23;;
36211;SDS011;22247;48.586;13.492;2023-01-01T05:34:02;108.35;;;19.08;;
36211;SDS011;22247;48.586;13.492;2023-01-01T05:36:32;55.75;;;15.93;;
36211;SDS011;22247;48.586;13.492;2023-01-01T05:39:02;55.35;;;21.88;;
36211;SDS011;22247;48.586;13.492;2023-01-01T05:41:28;97.13;;;28.02;;
36211;SDS011;22247;48.586;13.492;2023-01-01T05:44:00;75.20;;;27.30;;
36211;SDS011;22247;48.586;13.492;2023-01-01T05:46:27;101.03;;;26.27;;
36211;SDS011;22247;48.586;13.492;2023-01-01T05:48:55;95.82;;;27.35;;
36211;SDS011;22247;48.586;13.492;2023-01-01T05:51:21;100.90;;;27.40;;
36211;SDS011;22247;48.586;13.492;2023-01-01T05:53:52;90.05;;;26.00;;
36211;SDS011;22247;48.586;13.492;2023-01-01T05:56:21;116.53;;;27.55;;
36211;SDS011;22247;48.586;13.492;2023-01-01T05:58:49;80.53;;;25.10;;
36211;SDS011;22247;48.586;13.492;2023-01-01T06:01:20;83.97;;;25.67;;
36211;SDS011;22247;48.586;13.492;2023-01-01T06:03:48;104.15;;;25.20;;
36211;SDS011;22247;48.586;13.492;2023-01-01T06:06:17;92.95;;;25.25;;
36211;SDS011;22247;48.586;13.492;2023-01-01T06:08:48;105.90;;;27.48;;
36211;SDS011;22247;48.586;13.492;2023-01-01T06:11:14;76.75;;;25.98;;
36211;SDS011;22247;48.586;13.492;2023-01-01T06:13:45;62.65;;;24.13;;
36211;SDS011;22247;48.586;13.492;2023-01-01T06:16:15;44.55;;;23.10;;
36211;SDS011;22247;48.586;13.492;2023-01-01T06:18:43;202.55;;;28.10;;
36211;SDS011;22247;48.586;13.492;2023-01-01T06:21:10;40.55;;;21.63;;
36211;SDS011;22247;48.586;13.492;2023-01-01T06:23:37;52.40;;;19.75;;
36211;SDS011;22247;48.586;13.492;2023-01-01T06:26:19;162.27;;;22.85;;
36211;SDS011;22247;48.586;13.492;2023-01-01T06:28:52;76.50;;;20.52;;
36211;SDS011;22247;48.586;13.492;2023-01-01T06:31:19;172.13;;;21.35;;
36211;SDS011;22247;48.586;13.492;2023-01-01T06:33:48;63.10;;;16.58;;
36211;SDS011;22247;48.586;13.492;2023-01-01T06:36:18;130.48;;;18.00;;
36211;SDS011;22247;48.586;13.492;2023-01-01T06:38:47;110.63;;;18.58;;
36211;SDS011;22247;48.586;13.492;2023-01-01T06:41:18;79.65;;;15.90;;
36211;SDS011;22247;48.586;13.492;2023-01-01T06:43:46;115.07;;;17.02;;
36211;SDS011;22247;48.586;13.492;2023-01-01T06:46:16;52.33;;;16.23;;
36211;SDS011;22247;48.586;13.492;2023-01-01T06:48:49;57.72;;;16.25;;
36211;SDS011;22247;48.586;13.492;2023-01-01T06:51:20;70.85;;;14.88;;
36211;SDS011;22247;48.586;13.492;2023-01-01T06:53:48;33.35;;;12.93;;
36211;SDS011;22247;48.586;13.492;2023-01-01T06:56:16;35.40;;;12.50;;
36211;SDS011;22247;48.586;13.492;2023-01-01T06:58:42;29.95;;;13.05;;
36211;SDS011;22247;48.586;13.492;2023-01-01T07:01:14;53.67;;;14.18;;
36211;SDS011;22247;48.586;13.492;2023-01-01T07:03:43;38.78;;;14.98;;
36211;SDS011;22247;48.586;13.492;2023-01-01T07:06:16;25.58;;;13.57;;
36211;SDS011;22247;48.586;13.492;2023-01-01T07:08:44;33.47;;;15.18;;
36211;SDS011;22247;48.586;13.492;2023-01-01T07:11:10;28.20;;;14.70;;
36211;SDS011;22247;48.586;13.492;2023-01-01T07:13:38;17.15;;;10.18;;
36211;SDS011;22247;48.586;13.492;2023-01-01T07:16:04;16.20;;;11.02;;
36211;SDS011;22247;48.586;13.492;2023-01-01T07:18:37;16.23;;;10.30;;
36211;SDS011;22247;48.586;13.492;2023-01-01T07:21:05;15.30;;;9.93;;
36211;SDS011;22247;48.586;13.492;2023-01-01T07:23:48;12.32;;;8.48;;
36211;SDS011;22247;48.586;13.492;2023-01-01T07:26:13;16.88;;;9.35;;
36211;SDS011;22247;48.586;13.492;2023-01-01T07:28:39;18.65;;;10.07;;
36211;SDS011;22247;48.586;13.492;2023-01-01T07:31:08;18.10;;;11.02;;
36211;SDS011;22247;48.586;13.492;2023-01-01T07:33:34;18.38;;;9.73;;
36211;SDS011;22247;48.586;13.492;2023-01-01T07:36:02;29.58;;;11.80;;
36211;SDS011;22247;48.586;13.492;2023-01-01T07:38:30;49.13;;;10.95;;
36211;SDS011;22247;48.586;13.492;2023-01-01T07:40:59;105.28;;;12.98;;
36211;SDS011;22247;48.586;13.492;2023-01-01T07:43:25;40.83;;;11.15;;
36211;SDS011;22247;48.586;13.492;2023-01-01T07:45:51;40.47;;;12.43;;
36211;SDS011;22247;48.586;13.492;2023-01-01T07:48:17;112.55;;;15.77;;
36211;SDS011;22247;48.586;13.492;2023-01-01T07:50:43;28.05;;;10.50;;
36211;SDS011;22247;48.586;13.492;2023-01-01T07:53:09;161.25;;;20.85;;
36211;SDS011;22247;48.586;13.492;2023-01-01T07:55:34;31.63;;;9.23;;
36211;SDS011;22247;48.586;13.492;2023-01-01T07:58:03;193.85;;;17.50;;
36211;SDS011;22247;48.586;13.492;2023-01-01T08:00:31;211.20;;;14.98;;
36211;SDS011;22247;48.586;13.492;2023-01-01T08:02:59;252.60;;;19.20;;
36211;SDS011;22247;48.586;13.492;2023-01-01T08:05:25;62.63;;;10.25;;
36211;SDS011;22247;48.586;13.492;2023-01-01T08:07:55;101.50;;;12.55;;
36211;SDS011;22247;48.586;13.492;2023-01-01T08:10:23;239.75;;;19.17;;
36211;SDS011;22247;48.586;13.492;2023-01-01T08:12:53;273.52;;;20.42;;
36211;SDS011;22247;48.586;13.492;2023-01-01T08:15:27;216.98;;;19.45;;
36211;SDS011;22247;48.586;13.492;2023-01-01T08:17:56;167.73;;;14.73;;
36211;SDS011;22247;48.586;13.492;2023-01-01T08:20:25;245.77;;;20.58;;
36211;SDS011;22247;48.586;13.492;2023-01-01T08:22:51;199.50;;;16.35;;
36211;SDS011;22247;48.586;13.492;2023-01-01T08:25:17;207.13;;;14.52;;
36211;SDS011;22247;48.586;13.492;2023-01-01T08:27:43;262.65;;;19.40;;
36211;SDS011;22247;48.586;13.492;2023-01-01T08:30:10;255.38;;;21.73;;
36211;SDS011;22247;48.586;13.492;2023-01-01T08:32:37;230.70;;;16.33;;
36211;SDS011;22247;48.586;13.492;2023-01-01T08:35:03;217.52;;;17.70;;
36211;SDS011;22247;48.586;13.492;2023-01-01T08:37:29;224.07;;;20.20;;
36211;SDS011;22247;48.586;13.492;2023-01-01T08:39:57;228.23;;;20.13;;
36211;SDS011;22247;48.586;13.492;2023-01-01T08:42:25;180.68;;;19.00;;
36211;SDS011;22247;48.586;13.492;2023-01-01T08:44:50;160.73;;;16.05;;
36211;SDS011;22247;48.586;13.492;2023-01-01T08:47:20;355.40;;;28.50;;
36211;SDS011;22247;48.586;13.492;2023-01-01T08:49:47;158.23;;;18.15;;
36211;SDS011;22247;48.586;13.492;2023-01-01T08:52:14;169.65;;;18.95;;
36211;SDS011;22247;48.586;13.492;2023-01-01T08:54:40;141.35;;;17.25;;
36211;SDS011;22247;48.586;13.492;2023-01-01T08:57:08;247.80;;;26.75;;
36211;SDS011;22247;48.586;13.492;2023-01-01T08:59:36;149.35;;;18.30;;
36211;SDS011;22247;48.586;13.492;2023-01-01T09:02:05;126.05;;;16.48;;
36211;SDS011;22247;48.586;13.492;2023-01-01T09:04:31;182.68;;;18.92;;
36211;SDS011;22247;48.586;13.492;2023-01-01T09:06:59;143.45;;;17.48;;
36211;SDS011;22247;48.586;13.492;2023-01-01T09:09:25;77.03;;;17.27;;
36211;SDS011;22247;48.586;13.492;2023-01-01T09:11:52;51.90;;;14.73;;
36211;SDS011;22247;48.586;13.492;2023-01-01T09:14:23;28.75;;;13.88;;
36211;SDS011;22247;48.586;13.492;2023-01-01T09:16:49;32.05;;;15.02;;
36211;SDS011;22247;48.586;13.492;2023-01-01T09:19:19;22.25;;;11.75;;
36211;SDS011;22247;48.586;13.492;2023-01-01T09:21:48;22.25;;;13.48;;
36211;SDS011;22247;48.586;13.492;2023-01-01T09:24:14;22.40;;;14.30;;
36211;SDS011;22247;48.586;13.492;2023-01-01T09:26:39;22.58;;;14.88;;
36211;SDS011;22247;48.586;13.492;2023-01-01T09:29:08;41.63;;;13.00;;
36211;SDS011;22247;48.586;13.492;2023-01-01T09:31:33;192.50;;;18.65;;
36211;SDS011;22247;48.586;13.492;2023-01-01T09:33:59;28.05;;;11.90;;
36211;SDS011;22247;48.586;13.492;2023-01-01T09:36:29;126.15;;;16.25;;
36211;SDS011;22247;48.586;13.492;2023-01-01T09:38:58;52.33;;;15.65;;
36211;SDS011;22247;48.586;13.492;2023-01-01T09:46:41;30.63;;;14.80;;
36211;SDS011;22247;48.586;13.492;2023-01-01T09:49:14;30.52;;;15.75;;
36211;SDS011;22247;48.586;13.492;2023-01-01T09:52:03;58.83;;;13.95;;
36211;SDS011;22247;48.586;13.492;2023-01-01T09:54:39;25.80;;;13.73;;
36211;SDS011;22247;48.586;13.492;2023-01-01T09:57:12;33.67;;;14.43;;
36211;SDS011;22247;48.586;13.492;2023-01-01T09:59:38;29.58;;;14.25;;
36211;SDS011;22247;48.586;13.492;2023-01-01T10:10:19;20.60;;;12.40;;
36211;SDS011;22247;48.586;13.492;2023-01-01T10:13:41;19.98;;;13.65;;
36211;SDS011;22247;48.586;13.492;2023-01-01T10:18:35;25.13;;;13.23;;
36211;SDS011;22247;48.586;13.492;2023-01-01T10:26:28;18.55;;;11.82;;
36211;SDS011;22247;48.586;13.492;2023-01-01T10:31:48;19.20;;;11.30;;
36211;SDS011;22247;48.586;13.492;2023-01-01T10:36:47;19.38;;;11.40;;
36211;SDS011;22247;48.586;13.492;2023-01-01T10:39:18;15.87;;;10.63;;
36211;SDS011;22247;48.586;13.492;2023-01-01T10:41:44;15.80;;;10.40;;
36211;SDS011;22247;48.586;13.492;2023-01-01T10:44:11;17.50;;;12.13;;
36211;SDS011;22247;48.586;13.492;2023-01-01T10:46:39;14.52;;;11.02;;
36211;SDS011;22247;48.586;13.492;2023-01-01T10:49:11;14.32;;;8.73;;
36211;SDS011;22247;48.586;13.492;2023-01-01T10:51:42;12.00;;;7.38;;
36211;SDS011;22247;48.586;13.492;2023-01-01T10:54:32;11.95;;;7.32;;
36211;SDS011;22247;48.586;13.492;2023-01-01T11:00:17;11.33;;;7.33;;
36211;SDS011;22247;48.586;13.492;2023-01-01T11:05:43;14.75;;;8.98;;
36211;SDS011;22247;48.586;13.492;2023-01-01T11:08:47;13.63;;;7.68;;
36211;SDS011;22247;48.586;13.492;2023-01-01T11:11:19;11.73;;;8.00;;
36211;SDS011;22247;48.586;13.492;2023-01-01T11:13:47;8.30;;;5.78;;
36211;SDS011;22247;48.586;13.492;2023-01-01T11:16:15;9.38;;;6.07;;
36211;SDS011;22247;48.586;13.492;2023-01-01T11:18:41;13.27;;;7.65;;
36211;SDS011;22247;48.586;13.492;2023-01-01T11:21:09;10.27;;;5.50;;
36211;SDS011;22247;48.586;13.492;2023-01-01T11:23:43;8.07;;;4.53;;
36211;SDS011;22247;48.586;13.492;2023-01-01T11:28:37;6.72;;;3.78;;
36211;SDS011;22247;48.586;13.492;2023-01-01T11:33:42;8.27;;;4.93;;
36211;SDS011;22247;48.586;13.492;2023-01-01T11:36:23;4.43;;;3.22;;
36211;SDS011;22247;48.586;13.492;2023-01-01T11:38:50;5.72;;;2.88;;
36211;SDS011;22247;48.586;13.492;2023-01-01T11:41:50;6.13;;;2.70;;
36211;SDS011;22247;48.586;13.492;2023-01-01T11:47:01;4.45;;;2.60;;
36211;SDS011;22247;48.586;13.492;2023-01-01T11:49:29;6.00;;;3.63;;
36211;SDS011;22247;48.586;13.492;2023-01-01T11:52:01;4.90;;;3.08;;
36211;SDS011;22247;48.586;13.492;2023-01-01T11:55:02;6.57;;;3.92;;
36211;SDS011;22247;48.586;13.492;2023-01-01T12:00:23;12.40;;;8.45;;
36211;SDS011;22247;48.586;13.492;2023-01-01T12:02:53;11.85;;;7.97;;
36211;SDS011;22247;48.586;13.492;2023-01-01T12:05:33;11.38;;;8.25;;
36211;SDS011;22247;48.586;13.492;2023-01-01T12:08:02;5.13;;;3.90;;
36211;SDS011;22247;48.586;13.492;2023-01-01T12:10:38;5.45;;;3.78;;
36211;SDS011;22247;48.586;13.492;2023-01-01T12:13:19;6.72;;;4.00;;
36211;SDS011;22247;48.586;13.492;2023-01-01T12:18:59;10.10;;;5.78;;
36211;SDS011;22247;48.586;13.492;2023-01-01T12:21:30;6.18;;;4.65;;
36211;SDS011;22247;48.586;13.492;2023-01-01T12:24:09;6.53;;;4.75;;
36211;SDS011;22247;48.586;13.492;2023-01-01T12:34:50;10.27;;;4.90;;
36211;SDS011;22247;48.586;13.492;2023-01-01T12:37:36;11.10;;;6.00;;
36211;SDS011;22247;48.586;13.492;2023-01-01T12:42:54;10.48;;;6.10;;
36211;SDS011;22247;48.586;13.492;2023-01-01T12:57:47;7.32;;;5.03;;
36211;SDS011;22247;48.586;13.492;2023-01-01T13:02:27;9.90;;;5.53;;
36211;SDS011;22247;48.586;13.492;2023-01-01T13:05:06;7.15;;;4.18;;
36211;SDS011;22247;48.586;13.492;2023-01-01T13:07:44;7.47;;;4.40;;
36211;SDS011;22247;48.586;13.492;2023-01-01T13:10:19;5.13;;;3.55;;
36211;SDS011;22247;48.586;13.492;2023-01-01T13:12:53;8.23;;;4.32;;
36211;SDS011;22247;48.586;13.492;2023-01-01T13:18:17;4.97;;;3.03;;
36211;SDS011;22247;48.586;13.492;2023-01-01T13:37:30;3.58;;;2.33;;
36211;SDS011;22247;48.586;13.492;2023-01-01T13:45:10;3.13;;;2.20;;
36211;SDS011;22247;48.586;13.492;2023-01-01T14:03:52;5.07;;;2.28;;
36211;SDS011;22247;48.586;13.492;2023-01-01T14:06:29;2.08;;;1.55;;
36211;SDS011;22247;48.586;13.492;2023-01-01T14:11:32;7.22;;;2.28;;
36211;SDS011;22247;48.586;13.492;2023-01-01T14:13:58;3.47;;;1.80;;
36211;SDS011;22247;48.586;13.492;2023-01-01T14:16:26;3.20;;;2.28;;
36211;SDS011;22247;48.586;13.492;2023-01-01T14:18:53;2.35;;;1.63;;
36211;SDS011;22247;48.586;13.492;2023-01-01T14:21:25;3.90;;;2.90;;
36211;SDS011;22247;48.586;13.492;2023-01-01T14:23:56;3.85;;;2.85;;
36211;SDS011;22247;48.586;13.492;2023-01-01T14:26:24;3.15;;;1.60;;
36211;SDS011;22247;48.586;13.492;2023-01-01T14:28:54;3.92;;;3.30;;
36211;SDS011;22247;48.586;13.492;2023-01-01T14:31:26;5.70;;;3.20;;
36211;SDS011;22247;48.586;13.492;2023-01-01T14:33:58;5.38;;;2.88;;
36211;SDS011;22247;48.586;13.492;2023-01-01T14:36:25;5.85;;;3.10;;
36211;SDS011;22247;48.586;13.492;2023-01-01T14:38:53;4.88;;;2.65;;
36211;SDS011;22247;48.586;13.492;2023-01-01T14:41:30;4.85;;;2.72;;
36211;SDS011;22247;48.586;13.492;2023-01-01T14:44:05;4.63;;;2.25;;
36211;SDS011;22247;48.586;13.492;2023-01-01T14:46:40;5.13;;;2.30;;
36211;SDS011;22247;48.586;13.492;2023-01-01T14:49:09;3.13;;;1.88;;
36211;SDS011;22247;48.586;13.492;2023-01-01T14:51:41;3.80;;;2.00;;
36211;SDS011;22247;48.586;13.492;2023-01-01T14:54:14;2.10;;;1.15;;
36211;SDS011;22247;48.586;13.492;2023-01-01T14:56:45;3.88;;;2.20;;
36211;SDS011;22247;48.586;13.492;2023-01-01T14:59:25;4.00;;;2.10;;
36211;SDS011;22247;48.586;13.492;2023-01-01T15:04:46;2.80;;;1.05;;
36211;SDS011;22247;48.586;13.492;2023-01-01T15:07:20;6.35;;;1.70;;
36211;SDS011;22247;48.586;13.492;2023-01-01T15:09:51;2.75;;;1.42;;
36211;SDS011;22247;48.586;13.492;2023-01-01T15:12:23;1.52;;;1.00;;
36211;SDS011;22247;48.586;13.492;2023-01-01T15:14:49;3.17;;;1.92;;
36211;SDS011;22247;48.586;13.492;2023-01-01T15:17:20;4.22;;;1.80;;
36211;SDS011;22247;48.586;13.492;2023-01-01T15:20:32;2.53;;;1.42;;
36211;SDS011;22247;48.586;13.492;2023-01-01T15:22:47;2.88;;;1.60;;
36211;SDS011;22247;48.586;13.492;2023-01-01T15:25:14;5.47;;;1.50;;
36211;SDS011;22247;48.586;13.492;2023-01-01T15:27:42;2.95;;;1.40;;
36211;SDS011;22247;48.586;13.492;2023-01-01T15:30:26;3.33;;;1.40;;
36211;SDS011;22247;48.586;13.492;2023-01-01T15:32:57;3.85;;;1.38;;
36211;SDS011;22247;48.586;13.492;2023-01-01T15:35:33;3.63;;;2.03;;
36211;SDS011;22247;48.586;13.492;2023-01-01T15:38:08;4.10;;;1.98;;
36211;SDS011;22247;48.586;13.492;2023-01-01T15:40:38;3.17;;;1.38;;
36211;SDS011;22247;48.586;13.492;2023-01-01T15:43:11;3.13;;;1.45;;
36211;SDS011;22247;48.586;13.492;2023-01-01T15:48:36;5.47;;;1.80;;
36211;SDS011;22247;48.586;13.492;2023-01-01T15:56:25;2.23;;;1.57;;
36211;SDS011;22247;48.586;13.492;2023-01-01T15:59:04;3.63;;;1.50;;
36211;SDS011;22247;48.586;13.492;2023-01-01T16:02:04;4.32;;;2.42;;
36211;SDS011;22247;48.586;13.492;2023-01-01T16:04:47;3.95;;;1.98;;
36211;SDS011;22247;48.586;13.492;2023-01-01T16:07:20;4.85;;;2.70;;
36211;SDS011;22247;48.586;13.492;2023-01-01T16:09:50;4.80;;;2.30;;
36211;SDS011;22247;48.586;13.492;2023-01-01T16:12:21;7.15;;;3.28;;
36211;SDS011;22247;48.586;13.492;2023-01-01T16:14:47;8.73;;;4.07;;
36211;SDS011;22247;48.586;13.492;2023-01-01T16:17:17;4.65;;;2.72;;
36211;SDS011;22247;48.586;13.492;2023-01-01T16:19:49;5.70;;;2.78;;
36211;SDS011;22247;48.586;13.492;2023-01-01T16:22:18;8.57;;;3.50;;
36211;SDS011;22247;48.586;13.492;2023-01-01T16:24:44;7.78;;;3.45;;
36211;SDS011;22247;48.586;13.492;2023-01-01T16:27:15;6.93;;;3.47;;
36211;SDS011;22247;48.586;13.492;2023-01-01T16:29:43;8.23;;;4.22;;
36211;SDS011;22247;48.586;13.492;2023-01-01T16:32:15;8.90;;;3.92;;
36211;SDS011;22247;48.586;13.492;2023-01-01T16:34:48;7.63;;;3.45;;
36211;SDS011;22247;48.586;13.492;2023-01-01T16:37:16;8.20;;;4.13;;
36211;SDS011;22247;48.586;13.492;2023-01-01T16:39:47;9.60;;;4.35;;
36211;SDS011;22247;48.586;13.492;2023-01-01T16:42:13;6.68;;;3.17;;
36211;SDS011;22247;48.586;13.492;2023-01-01T16:44:39;6.45;;;3.33;;
36211;SDS011;22247;48.586;13.492;2023-01-01T16:47:10;7.03;;;4.22;;
36211;SDS011;22247;48.586;13.492;2023-01-01T16:49:36;7.00;;;3.35;;
36211;SDS011;22247;48.586;13.492;2023-01-01T16:52:04;7.78;;;3.15;;
36211;SDS011;22247;48.586;13.492;2023-01-01T16:54:29;8.48;;;3.90;;
36211;SDS011;22247;48.586;13.492;2023-01-01T16:57:01;9.30;;;3.08;;
36211;SDS011;22247;48.586;13.492;2023-01-01T16:59:27;4.38;;;2.45;;
36211;SDS011;22247;48.586;13.492;2023-01-01T17:01:53;5.43;;;2.75;;
36211;SDS011;22247;48.586;13.492;2023-01-01T17:04:19;5.28;;;2.10;;
36211;SDS011;22247;48.586;13.492;2023-01-01T17:06:45;26.13;;;2.65;;
36211;SDS011;22247;48.586;13.492;2023-01-01T17:09:13;81.88;;;4.72;;
36211;SDS011;22247;48.586;13.492;2023-01-01T17:11:39;11.48;;;2.33;;
36211;SDS011;22247;48.586;13.492;2023-01-01T17:14:08;2.72;;;1.67;;
36211;SDS011;22247;48.586;13.492;2023-01-01T17:16:34;3.85;;;1.67;;
36211;SDS011;22247;48.586;13.492;2023-01-01T17:19:02;74.38;;;4.05;;
36211;SDS011;22247;48.586;13.492;2023-01-01T17:21:31;3.42;;;1.48;;
36211;SDS011;22247;48.586;13.492;2023-01-01T17:23:58;2.78;;;1.50;;
36211;SDS011;22247;48.586;13.492;2023-01-01T17:26:24;4.60;;;2.00;;
36211;SDS011;22247;48.586;13.492;2023-01-01T17:28:54;2.08;;;1.13;;